createdAt,value
2022-09-11T00:01:49.355Z,101865.22
2022-09-11T00:04:16.908Z,101855.41
2022-09-11T00:06:44.806Z,101860.22
2022-09-11T00:09:12.308Z,101856.88
2022-09-11T00:11:41.352Z,101854.66
2022-09-11T00:14:11.253Z,101858.13
2022-09-11T00:16:39.792Z,101857.88
2022-09-11T00:19:08.496Z,101853.38
2022-09-11T00:21:36.419Z,101851.19
2022-09-11T00:24:04.645Z,101841.38
2022-09-11T00:26:32.165Z,101849.28
2022-09-11T00:29:01.890Z,101856.38
2022-09-11T00:31:32.395Z,101852.19
2022-09-11T00:34:00.676Z,101847.19
2022-09-11T00:36:31.126Z,101856.78
2022-09-11T00:38:59.339Z,101852.59
2022-09-11T00:41:28.864Z,101854.03
2022-09-11T00:44:01.294Z,101851.00
2022-09-11T00:46:35.743Z,101846.28
2022-09-11T00:49:04.564Z,101847.75
2022-09-11T00:51:34.695Z,101853.16
2022-09-11T00:54:03.827Z,101850.66
2022-09-11T00:56:35.393Z,101843.66
2022-09-11T00:59:03.865Z,101855.22
2022-09-11T01:01:31.397Z,101851.03
2022-09-11T01:04:01.640Z,101846.03
2022-09-11T01:06:29.129Z,101846.63
2022-09-11T01:08:59.137Z,101848.06
2022-09-11T01:11:41.601Z,101845.06
2022-09-11T01:14:12.774Z,101841.19
2022-09-11T01:16:43.881Z,101840.63
2022-09-11T01:19:20.589Z,101837.59
2022-09-11T01:21:56.524Z,101833.41
2022-09-11T01:24:32.305Z,101840.47
2022-09-11T01:27:20.791Z,101836.94
2022-09-11T01:29:52.098Z,101841.19
2022-09-11T01:32:22.065Z,101840.09
2022-09-11T01:34:52.727Z,101843.81
2022-09-11T01:37:24.083Z,101847.22
2022-09-11T01:39:57.221Z,101845.88
2022-09-11T01:42:25.910Z,101851.81
2022-09-11T01:44:57.695Z,101851.81
2022-09-11T01:47:26.470Z,101847.63
2022-09-11T01:49:57.318Z,101858.03
2022-09-11T01:52:30.556Z,101854.66
2022-09-11T01:55:02.256Z,101851.94
2022-09-11T01:57:34.665Z,101853.06
2022-09-11T02:00:07.355Z,101843.56
2022-09-11T02:02:45.891Z,101843.31
2022-09-11T02:05:17.075Z,101850.38
2022-09-11T02:07:48.557Z,101853.78
2022-09-11T02:10:18.166Z,101858.00
2022-09-11T02:12:52.844Z,101862.25
2022-09-11T02:15:26.008Z,101861.72
2022-09-11T02:17:55.866Z,101861.16
2022-09-11T02:20:28.560Z,101861.78
2022-09-11T02:22:56.718Z,101870.47
2022-09-11T02:25:24.800Z,101869.97
2022-09-11T02:27:56.756Z,101877.56
2022-09-11T02:30:25.644Z,101870.56
2022-09-11T02:32:55.779Z,101868.06
2022-09-11T02:35:25.088Z,101874.25
2022-09-11T02:37:57.034Z,101870.91
2022-09-11T02:40:32.806Z,101868.41
2022-09-11T02:43:10.118Z,101869.84
2022-09-11T02:45:48.789Z,101870.44
2022-09-11T02:48:25.705Z,101863.13
2022-09-11T02:50:59.798Z,101872.72
2022-09-11T02:53:30.889Z,101864.59
2022-09-11T02:56:02.588Z,101868.53
2022-09-11T02:58:35.091Z,101865.19
2022-09-11T03:01:04.446Z,101864.94
2022-09-11T03:03:38.402Z,101864.41
2022-09-11T03:06:06.196Z,101871.44
2022-09-11T03:08:34.453Z,101881.28
2022-09-11T03:11:02.207Z,101884.38
2022-09-11T03:13:32.698Z,101880.19
2022-09-11T03:16:01.498Z,101886.97
2022-09-11T03:18:30.433Z,101890.34
2022-09-11T03:20:57.979Z,101893.44
2022-09-11T03:23:26.480Z,101890.94
2022-09-11T03:25:54.913Z,101892.06
2022-09-11T03:28:23.698Z,101893.19
2022-09-11T03:30:52.764Z,101888.72
2022-09-11T03:33:20.357Z,101887.88
2022-09-11T03:35:49.366Z,101885.06
2022-09-11T03:38:17.170Z,101890.16
2022-09-11T03:40:44.804Z,101890.44
2022-09-11T03:43:13.200Z,101897.19
2022-09-11T03:45:40.733Z,101888.22
2022-09-11T03:48:10.045Z,101886.03
2022-09-11T03:50:37.888Z,101891.09
2022-09-11T03:53:06.761Z,101892.22
2022-09-11T03:55:35.075Z,101887.19
2022-09-11T03:58:02.639Z,101887.19
2022-09-11T04:00:30.273Z,101890.28
2022-09-11T04:02:58.155Z,101890.28
2022-09-11T04:05:32.970Z,101889.75
2022-09-11T04:08:02.188Z,101888.34
2022-09-11T04:10:32.983Z,101885.00
2022-09-11T04:13:01.569Z,101888.09
2022-09-11T04:15:29.146Z,101881.94
2022-09-11T04:18:00.043Z,101883.41
2022-09-11T04:20:29.697Z,101888.16
2022-09-11T04:22:57.885Z,101893.22
2022-09-11T04:25:25.520Z,101896.31
2022-09-11T04:27:54.361Z,101894.94
2022-09-11T04:30:22.299Z,101899.16
2022-09-11T04:32:52.500Z,101896.66
2022-09-11T04:35:21.499Z,101898.63
2022-09-11T04:37:54.314Z,101895.25
2022-09-11T04:40:21.918Z,101895.25
2022-09-11T04:42:49.507Z,101896.38
2022-09-11T04:45:18.897Z,101901.72
2022-09-11T04:47:46.977Z,101902.03
2022-09-11T04:50:14.622Z,101898.69
2022-09-11T04:52:45.309Z,101903.75
2022-09-11T04:55:12.848Z,101907.09
2022-09-11T04:57:40.475Z,101911.31
2022-09-11T05:00:10.865Z,101908.81
2022-09-11T05:02:40.555Z,101907.13
2022-09-11T05:05:09.121Z,101905.75
2022-09-11T05:07:36.699Z,101908.53
2022-09-11T05:10:06.030Z,101902.09
2022-09-11T05:12:33.648Z,101912.47
2022-09-11T05:15:01.156Z,101909.13
2022-09-11T05:17:30.436Z,101913.88
2022-09-11T05:19:59.323Z,101919.50
2022-09-11T05:22:27.025Z,101917.53
2022-09-11T05:24:57.464Z,101921.47
2022-09-11T05:27:25.512Z,101930.69
2022-09-11T05:29:53.633Z,101933.50
2022-09-11T05:32:21.169Z,101937.44
2022-09-11T05:34:49.880Z,101949.47
2022-09-11T05:37:21.684Z,101937.13
2022-09-11T05:39:49.583Z,101949.19
2022-09-11T05:42:17.642Z,101948.06
2022-09-11T05:44:52.203Z,101949.75
2022-09-11T05:47:19.825Z,101941.88
2022-09-11T05:49:50.655Z,101944.13
2022-09-11T05:52:18.519Z,101944.66
2022-09-11T05:54:47.530Z,101946.06
2022-09-11T05:57:15.844Z,101954.22
2022-09-11T05:59:44.112Z,101957.56
2022-09-11T06:02:12.488Z,101967.03
2022-09-11T06:04:44.851Z,101961.41
2022-09-11T06:07:13.064Z,101971.22
2022-09-11T06:09:42.708Z,101970.06
2022-09-11T06:12:12.795Z,101975.91
2022-09-11T06:14:44.447Z,101980.63
2022-09-11T06:17:12.558Z,101981.44
2022-09-11T06:19:40.400Z,101992.34
2022-09-11T06:22:07.920Z,101995.94
2022-09-11T06:24:40.025Z,101987.47
2022-09-11T06:27:07.573Z,101995.56
2022-09-11T06:29:39.437Z,101988.78
2022-09-11T06:32:07.724Z,101992.91
2022-09-11T06:34:35.665Z,101988.66
2022-09-11T06:37:07.798Z,101992.19
2022-09-11T06:39:35.533Z,101989.31
2022-09-11T06:42:03.408Z,101996.47
2022-09-11T06:44:35.063Z,101989.09
2022-09-11T06:47:05.627Z,101988.94
2022-09-11T06:49:35.586Z,101990.88
2022-09-11T06:52:21.691Z,101982.19
2022-09-11T06:55:02.159Z,101987.34
2022-09-11T06:57:30.783Z,101983.66
2022-09-11T06:59:58.508Z,101984.44
2022-09-11T07:02:28.320Z,101990.94
2022-09-11T07:04:56.047Z,101985.53
2022-09-11T07:07:26.713Z,101991.56
2022-09-11T07:09:54.831Z,101987.22
2022-09-11T07:12:25.141Z,101975.91
2022-09-11T07:14:52.877Z,101975.28
2022-09-11T07:17:20.399Z,101981.38
2022-09-11T07:19:52.444Z,101978.16
2022-09-11T07:22:19.989Z,101978.25
2022-09-11T07:24:49.409Z,101981.03
2022-09-11T07:27:19.360Z,101976.38
2022-09-11T07:29:47.776Z,101981.34
2022-09-11T07:32:15.533Z,101976.44
2022-09-11T07:34:43.716Z,101978.72
2022-09-11T07:37:13.377Z,101988.03
2022-09-11T07:39:41.715Z,101988.34
2022-09-11T07:42:18.779Z,101991.47
2022-09-11T07:44:47.289Z,101992.94
2022-09-11T07:47:16.223Z,101997.13
2022-09-11T07:49:48.018Z,101995.91
2022-09-11T07:52:18.377Z,101999.09
2022-09-11T07:54:52.144Z,101989.19
2022-09-11T07:57:22.008Z,101995.22
2022-09-11T07:59:51.568Z,101997.00
2022-09-11T08:02:20.136Z,101986.50
2022-09-11T08:04:48.030Z,101990.09
2022-09-11T08:07:17.706Z,101993.97
2022-09-11T08:09:45.533Z,101989.75
2022-09-11T08:12:14.069Z,101994.84
2022-09-11T08:14:42.023Z,101993.34
2022-09-11T08:17:16.012Z,101994.28
2022-09-11T08:19:43.625Z,101993.25
2022-09-11T08:22:12.947Z,102005.13
2022-09-11T08:24:45.939Z,101995.97
2022-09-11T08:27:16.978Z,102005.28
2022-09-11T08:29:45.867Z,102003.03
2022-09-11T08:32:14.102Z,101998.50
2022-09-11T08:34:42.206Z,102001.38
2022-09-11T08:37:09.748Z,102009.22
2022-09-11T08:39:38.434Z,102008.31
2022-09-11T08:42:10.553Z,102005.38
2022-09-11T08:44:42.458Z,102011.31
2022-09-11T08:47:20.007Z,102015.03
2022-09-11T08:49:54.901Z,102020.25
2022-09-11T08:52:24.588Z,102022.97
2022-09-11T08:54:56.053Z,102019.84
2022-09-11T08:57:29.298Z,102020.38
2022-09-11T09:00:06.994Z,102012.00
2022-09-11T09:02:56.202Z,102007.75
2022-09-11T09:05:29.273Z,102005.59
2022-09-11T09:08:07.080Z,102004.41
2022-09-11T09:10:40.901Z,102016.59
2022-09-11T09:13:17.462Z,102017.16
2022-09-11T09:15:48.926Z,102012.56
2022-09-11T09:18:19.109Z,102007.53
2022-09-11T09:20:51.377Z,102006.16
2022-09-11T09:23:19.859Z,102025.78
2022-09-11T09:25:48.990Z,102028.44
2022-09-11T09:28:20.976Z,102020.97
2022-09-11T09:30:51.885Z,102026.16
2022-09-11T09:33:28.253Z,102030.03
2022-09-11T09:35:57.053Z,102032.69
2022-09-11T09:38:28.467Z,102038.13
2022-09-11T09:41:03.391Z,102032.88
2022-09-11T09:43:38.378Z,102034.91
2022-09-11T09:46:11.408Z,102034.63
2022-09-11T09:48:40.590Z,102045.09
2022-09-11T09:51:12.561Z,102032.56
2022-09-11T09:53:41.931Z,102038.97
2022-09-11T09:56:14.110Z,102038.19
2022-09-11T09:58:49.961Z,102043.59
2022-09-11T10:01:47.792Z,102045.72
2022-09-11T10:04:17.175Z,102036.22
2022-09-11T10:06:45.964Z,102044.94
2022-09-11T10:09:31.370Z,102049.19
2022-09-11T10:12:02.629Z,102054.69
2022-09-11T10:17:22.303Z,102048.28
2022-09-11T10:19:50.913Z,102044.66
2022-09-11T10:22:23.690Z,102039.78
2022-09-11T10:24:53.641Z,102047.66
2022-09-11T10:27:22.998Z,102050.13
2022-09-11T10:29:54.342Z,102037.38
2022-09-11T10:32:24.544Z,102034.53
2022-09-11T10:34:53.276Z,102036.97
2022-09-11T10:37:25.435Z,102035.75
2022-09-11T10:39:54.014Z,102032.88
2022-09-11T10:42:23.454Z,102032.91
2022-09-11T10:44:52.348Z,102034.53
2022-09-11T10:47:25.005Z,102041.53
2022-09-11T10:50:11.911Z,102042.38
2022-09-11T10:52:47.596Z,102043.59
2022-09-11T10:55:17.439Z,102034.53
2022-09-11T10:57:46.474Z,102028.78
2022-09-11T11:00:17.058Z,102030.41
2022-09-11T11:02:47.498Z,102025.44
2022-09-11T11:05:20.747Z,102024.63
2022-09-11T11:07:53.194Z,102026.69
2022-09-11T11:10:25.994Z,102024.63
2022-09-11T11:13:01.816Z,102025.41
2022-09-11T11:15:38.670Z,102024.19
2022-09-11T11:18:23.555Z,102023.81
2022-09-11T11:21:00.065Z,102027.50
2022-09-11T11:23:44.815Z,102019.25
2022-09-11T11:26:17.814Z,102018.88
2022-09-11T11:29:01.435Z,102017.19
2022-09-11T11:31:40.330Z,102015.94
2022-09-11T11:34:29.227Z,102015.56
2022-09-11T11:37:02.144Z,102005.25
2022-09-11T11:39:33.070Z,102021.34
2022-09-11T11:42:08.097Z,102022.16
2022-09-11T11:44:40.821Z,102018.03
2022-09-11T11:47:10.792Z,102018.88
2022-09-11T11:49:48.894Z,102015.56
2022-09-11T11:52:24.981Z,102014.66
2022-09-11T11:54:55.641Z,102020.78
2022-09-11T11:57:26.596Z,102024.09
2022-09-11T11:59:57.122Z,102016.31
2022-09-11T12:02:27.970Z,102014.66
2022-09-11T12:04:58.434Z,102014.25
2022-09-11T12:07:28.258Z,102018.78
2022-09-11T12:09:57.409Z,102012.59
2022-09-11T12:12:26.528Z,102024.47
2022-09-11T12:14:55.184Z,102019.47
2022-09-11T12:17:26.349Z,102023.09
2022-09-11T12:20:12.294Z,102013.97
2022-09-11T12:22:42.310Z,102019.72
2022-09-11T12:25:24.719Z,102015.13
2022-09-11T12:27:53.594Z,102014.06
2022-09-11T12:30:22.575Z,102012.75
2022-09-11T12:32:51.218Z,102009.00
2022-09-11T12:35:21.238Z,102002.50
2022-09-11T12:37:54.322Z,102005.81
2022-09-11T12:40:25.096Z,102021.38
2022-09-11T12:43:00.933Z,102016.34
2022-09-11T12:45:32.955Z,102004.00
2022-09-11T12:48:07.861Z,102001.50
2022-09-11T12:50:35.902Z,101991.53
2022-09-11T12:53:05.648Z,101993.09
2022-09-11T12:55:35.209Z,101995.16
2022-09-11T12:58:04.558Z,101987.38
2022-09-11T13:00:35.411Z,101984.09
2022-09-11T13:03:04.291Z,101987.72
2022-09-11T13:05:34.519Z,101994.91
2022-09-11T13:08:05.212Z,101989.38
2022-09-11T13:10:35.214Z,101984.31
2022-09-11T13:13:28.287Z,101986.97
2022-09-11T13:15:57.948Z,101986.66
2022-09-11T13:18:29.821Z,101984.38
2022-09-11T13:20:59.398Z,101985.03
2022-09-11T13:23:27.413Z,101985.81
2022-09-11T13:25:58.134Z,101979.31
2022-09-11T13:28:27.749Z,101971.03
2022-09-11T13:30:57.904Z,101971.03
2022-09-11T13:33:29.035Z,101969.00
2022-09-11T13:35:57.591Z,101969.31
2022-09-11T13:38:28.381Z,101962.03
2022-09-11T13:40:58.560Z,101951.28
2022-09-11T13:43:30.643Z,101955.69
2022-09-11T13:46:11.058Z,101957.41
2022-09-11T13:48:39.196Z,101955.44
2022-09-11T13:51:06.955Z,101962.38
2022-09-11T13:53:36.408Z,101957.03
2022-09-11T13:56:05.359Z,101954.53
2022-09-11T13:58:35.789Z,101952.06
2022-09-11T14:01:11.406Z,101951.06
2022-09-11T14:03:39.895Z,101954.94
2022-09-11T14:06:10.877Z,101948.28
2022-09-11T14:08:40.246Z,101941.84
2022-09-11T14:11:11.645Z,101942.16
2022-09-11T14:13:42.933Z,101941.72
2022-09-11T14:16:18.947Z,101948.66
2022-09-11T14:18:48.202Z,101937.22
2022-09-11T14:21:16.891Z,101940.06
2022-09-11T14:23:45.624Z,101942.09
2022-09-11T14:26:16.122Z,101944.78
2022-09-11T14:28:50.344Z,101938.94
2022-09-11T14:31:28.183Z,101935.03
2022-09-11T14:34:03.780Z,101942.38
2022-09-11T14:36:31.811Z,101926.97
2022-09-11T14:38:59.421Z,101931.59
2022-09-11T14:41:28.302Z,101928.28
2022-09-11T14:43:56.490Z,101932.72
2022-09-11T14:46:24.005Z,101926.94
2022-09-11T14:48:51.598Z,101923.91
2022-09-11T14:51:20.725Z,101928.09
2022-09-11T14:53:48.247Z,101927.72
2022-09-11T14:56:15.824Z,101932.97
2022-09-11T14:58:44.706Z,101933.06
2022-09-11T15:01:13.517Z,101931.97
2022-09-11T15:03:41.150Z,101934.84
2022-09-11T15:06:20.485Z,101930.41
2022-09-11T15:08:48.234Z,101922.69
2022-09-11T15:11:16.350Z,101921.84
2022-09-11T15:14:11.007Z,101920.03
2022-09-11T15:16:33.673Z,101916.97
2022-09-11T15:19:01.239Z,101919.00
2022-09-11T15:21:28.994Z,101919.19
2022-09-11T15:23:56.526Z,101907.78
2022-09-11T15:26:24.033Z,101904.19
2022-09-11T15:28:53.311Z,101900.16
2022-09-11T15:31:21.005Z,101894.25
2022-09-11T15:33:50.793Z,101897.72
2022-09-11T15:36:18.475Z,101889.97
2022-09-11T15:38:51.442Z,101892.72
2022-09-11T15:41:21.875Z,101893.50
2022-09-11T15:43:50.508Z,101885.66
2022-09-11T15:46:21.049Z,101893.66
2022-09-11T15:48:49.273Z,101891.78
2022-09-11T15:51:18.037Z,101891.50
2022-09-11T15:53:45.595Z,101889.28
2022-09-11T15:56:15.212Z,101897.72
2022-09-11T15:58:44.421Z,101882.47
2022-09-11T16:01:17.654Z,101885.09
2022-09-11T16:03:50.218Z,101892.28
2022-09-11T16:06:17.733Z,101890.50
2022-09-11T16:08:45.205Z,101897.41
2022-09-11T16:11:14.228Z,101891.88
2022-09-11T16:13:41.791Z,101888.53
2022-09-11T16:16:09.391Z,101891.28
2022-09-11T16:18:38.422Z,101885.34
2022-09-11T16:21:07.599Z,101882.31
2022-09-11T16:23:35.750Z,101884.09
2022-09-11T16:26:03.810Z,101886.28
2022-09-11T16:28:31.778Z,101886.84
2022-09-11T16:30:59.306Z,101874.06
2022-09-11T16:33:26.857Z,101871.47
2022-09-11T16:35:57.967Z,101882.59
2022-09-11T16:38:27.023Z,101878.78
2022-09-11T16:41:01.301Z,101874.50
2022-09-11T16:43:28.865Z,101867.06
2022-09-11T16:45:56.525Z,101863.63
2022-09-11T16:48:25.358Z,101863.84
2022-09-11T16:50:53.683Z,101853.91
2022-09-11T16:53:21.726Z,101859.00
2022-09-11T16:55:51.843Z,101850.22
2022-09-11T16:58:19.360Z,101852.47
2022-09-11T17:00:47.204Z,101851.06
2022-09-11T17:03:15.057Z,101853.31
2022-09-11T17:05:47.191Z,101856.38
2022-09-11T17:08:14.763Z,101851.69
2022-09-11T17:10:43.528Z,101852.78
2022-09-11T17:13:12.664Z,101836.28
2022-09-11T17:15:40.559Z,101842.56
2022-09-11T17:18:08.070Z,101843.97
2022-09-11T17:20:35.569Z,101848.22
2022-09-11T17:23:04.093Z,101838.59
2022-09-11T17:25:31.904Z,101844.03
2022-09-11T17:27:59.878Z,101847.78
2022-09-11T17:30:29.253Z,101836.88
2022-09-11T17:32:57.313Z,101839.44
2022-09-11T17:35:25.081Z,101852.16
2022-09-11T17:37:52.694Z,101843.72
2022-09-11T17:40:20.537Z,101845.44
2022-09-11T17:42:48.665Z,101843.84
2022-09-11T17:45:16.564Z,101842.75
2022-09-11T17:47:45.444Z,101835.47
2022-09-11T17:50:14.456Z,101832.69
2022-09-11T17:52:42.207Z,101824.22
2022-09-11T17:55:11.221Z,101823.13
2022-09-11T17:57:42.262Z,101805.00
2022-09-11T18:00:11.231Z,101817.56
2022-09-11T18:02:41.853Z,101817.25
2022-09-11T18:05:10.812Z,101831.44
2022-09-11T18:07:39.065Z,101829.84
2022-09-11T18:10:07.855Z,101825.72
2022-09-11T18:12:36.114Z,101836.25
2022-09-11T18:15:03.843Z,101828.59
2022-09-11T18:17:31.966Z,101833.50
2022-09-11T18:19:59.497Z,101830.34
2022-09-11T18:22:29.762Z,101828.72
2022-09-11T18:24:59.846Z,101830.69
2022-09-11T18:27:27.528Z,101821.72
2022-09-11T18:29:55.520Z,101833.53
2022-09-11T18:32:22.978Z,101832.72
2022-09-11T18:34:50.452Z,101833.22
2022-09-11T18:37:18.176Z,101838.88
2022-09-11T18:39:48.294Z,101840.53
2022-09-11T18:42:17.983Z,101834.56
2022-09-11T18:44:45.544Z,101829.38
2022-09-11T18:47:13.032Z,101830.69
2022-09-11T18:49:40.600Z,101831.22
2022-09-11T18:52:08.762Z,101837.34
2022-09-11T18:54:37.181Z,101837.00
2022-09-11T18:57:06.164Z,101830.66
2022-09-11T18:59:33.671Z,101827.97
2022-09-11T19:02:01.354Z,101833.78
2022-09-11T19:04:29.164Z,101830.28
2022-09-11T19:06:56.707Z,101831.59
2022-09-11T19:09:24.268Z,101833.41
2022-09-11T19:11:53.858Z,101832.72
2022-09-11T19:14:22.781Z,101823.56
2022-09-11T19:16:50.515Z,101823.41
2022-09-11T19:19:18.041Z,101818.72
2022-09-11T19:21:45.538Z,101820.53
2022-09-11T19:24:13.387Z,101815.38
2022-09-11T19:26:42.291Z,101824.81
2022-09-11T19:29:10.473Z,101832.59
2022-09-11T19:31:39.780Z,101828.22
2022-09-11T19:34:08.216Z,101831.22
2022-09-11T19:36:36.548Z,101825.69
2022-09-11T19:39:04.881Z,101833.97
2022-09-11T19:41:33.661Z,101832.09
2022-09-11T19:44:01.522Z,101833.03
2022-09-11T19:46:29.780Z,101822.75
2022-09-11T19:49:00.659Z,101825.69
2022-09-11T19:51:29.392Z,101824.66
2022-09-11T19:53:57.718Z,101830.31
2022-09-11T19:56:25.994Z,101835.13
2022-09-11T19:58:54.105Z,101826.97
2022-09-11T20:01:23.696Z,101830.44
2022-09-11T20:03:52.904Z,101835.59
2022-09-11T20:06:22.917Z,101826.63
2022-09-11T20:08:56.004Z,101825.78
2022-09-11T20:11:35.786Z,101827.25
2022-09-11T20:14:04.536Z,101831.22
2022-09-11T20:16:32.387Z,101830.19
2022-09-11T20:19:05.425Z,101831.34
2022-09-11T20:21:35.359Z,101824.34
2022-09-11T20:24:04.744Z,101823.84
2022-09-11T20:26:32.399Z,101826.16
2022-09-11T20:29:00.857Z,101825.66
2022-09-11T20:31:29.794Z,101820.34
2022-09-11T20:33:57.351Z,101822.13
2022-09-11T20:36:27.072Z,101812.31
2022-09-11T20:38:56.337Z,101812.94
2022-09-11T20:41:24.840Z,101817.56
2022-09-11T20:43:53.396Z,101821.84
2022-09-11T20:46:21.221Z,101823.84
2022-09-11T20:48:49.995Z,101821.00
2022-09-11T20:51:17.612Z,101818.50
2022-09-11T20:53:45.925Z,101824.97
2022-09-11T20:56:15.795Z,101821.69
2022-09-11T20:58:44.156Z,101815.53
2022-09-11T21:01:13.058Z,101817.50
2022-09-11T21:03:44.587Z,101817.50
2022-09-11T21:06:12.182Z,101813.03
2022-09-11T21:08:42.071Z,101810.50
2022-09-11T21:11:10.003Z,101813.66
2022-09-11T21:13:39.446Z,101813.97
2022-09-11T21:16:08.062Z,101802.16
2022-09-11T21:18:35.669Z,101803.63
2022-09-11T21:21:03.168Z,101807.59
2022-09-11T21:23:30.644Z,101805.94
2022-09-11T21:25:58.237Z,101798.94
2022-09-11T21:28:25.749Z,101797.63
2022-09-11T21:30:54.608Z,101795.97
2022-09-11T21:33:22.184Z,101794.28
2022-09-11T21:35:53.470Z,101796.91
2022-09-11T21:38:21.496Z,101795.25
2022-09-11T21:40:49.025Z,101802.84
2022-09-11T21:43:16.516Z,101795.56
2022-09-11T21:45:44.012Z,101791.06
2022-09-11T21:48:12.916Z,101793.38
2022-09-11T21:50:40.455Z,101792.84
2022-09-11T21:53:08.894Z,101799.63
2022-09-11T21:55:37.900Z,101795.13
2022-09-11T21:58:05.654Z,101792.28
2022-09-11T22:00:37.471Z,101803.88
2022-09-11T22:03:08.256Z,101794.09
2022-09-11T22:05:39.576Z,101789.94
2022-09-11T22:08:07.257Z,101793.06
2022-09-11T22:10:34.746Z,101797.88
2022-09-11T22:13:02.277Z,101797.34
2022-09-11T22:15:29.765Z,101788.06
2022-09-11T22:17:57.291Z,101790.34
2022-09-11T22:20:24.859Z,101790.66
2022-09-11T22:22:56.380Z,101792.66
2022-09-11T22:25:23.863Z,101787.34
2022-09-11T22:27:51.327Z,101790.16
2022-09-11T22:30:18.872Z,101787.66
2022-09-11T22:32:46.367Z,101777.84
2022-09-11T22:35:14.915Z,101780.97
2022-09-11T22:37:42.406Z,101784.63
2022-09-11T22:40:12.567Z,101780.97
2022-09-11T22:42:40.117Z,101776.81
2022-09-11T22:45:08.098Z,101779.97
2022-09-11T22:47:35.689Z,101771.00
2022-09-11T22:50:03.337Z,101769.31
2022-09-11T22:52:31.289Z,101776.09
2022-09-11T22:54:58.781Z,101767.97
2022-09-11T22:57:29.255Z,101773.59
2022-09-11T22:59:57.018Z,101771.63
2022-09-11T23:02:27.410Z,101768.78
2022-09-11T23:05:08.816Z,101765.97
2022-09-11T23:07:36.984Z,101764.31
2022-09-11T23:10:04.608Z,101762.66
2022-09-11T23:12:33.457Z,101755.34
2022-09-11T23:15:02.968Z,101769.41
2022-09-11T23:17:30.455Z,101761.28
2022-09-11T23:19:57.974Z,101754.81
2022-09-11T23:22:27.126Z,101752.63
2022-09-11T23:24:54.626Z,101757.75
2022-09-11T23:27:22.126Z,101752.41
2022-09-11T23:29:50.977Z,101741.50
2022-09-11T23:32:18.506Z,101740.97
2022-09-11T23:34:45.963Z,101740.47
2022-09-11T23:37:13.478Z,101729.81
2022-09-11T23:39:40.979Z,101730.13
2022-09-11T23:42:08.524Z,101736.06
2022-09-11T23:44:36.016Z,101726.59
2022-09-11T23:47:05.036Z,101728.03
2022-09-11T23:49:36.129Z,101721.09
2022-09-11T23:52:04.356Z,101730.16
2022-09-11T23:54:31.869Z,101725.69
2022-09-11T23:56:59.411Z,101715.88
2022-09-11T23:59:26.925Z,101722.66
